Flag for USA

Past Weather in 35°24'08.1"N, 86°03'24.7"W, USA — Yesterday and Last 2 Weeks

Currently: 66 °F. Overcast. (Weather station: Deason, USA). See more current weather

Past Weather in 35°24'08.1"N, 86°03'24.7"W — Graph

°F

35°24'08.1"N, 86°03'24.7"W Temperature Yesterday

Maximum temperature yesterday: 66 °F (at 4:35 am)
Minimum temperature yesterday: 59 °F (at 12:35 am)
Average temperature yesterday: 63 °F

High & Low Weather Summary for the Past Weeks

 TemperatureHumidityPressure
High70 °F (Feb 24, 1:15 pm)100% (Feb 13, 5:15 am)30.44 "Hg (Feb 13, 5:15 am)
Low5 °F (Feb 20, 6:15 am)26% (Feb 24, 4:55 pm)29.70 "Hg (Feb 15, 4:35 pm)
Average37 °F81%30.14 "Hg
* Reported Feb 13 5:15 am — Feb 28 5:55 am, 35°24'08.1"N, 86°03'24.7"W. Weather by CustomWeather, © 2021

Note: Actual official high and low records may vary slightly from our data, if they occured in-between our weather recording intervals... More about our weather records

35°24'08.1"N, 86°03'24.7"W Weather History for the Previous 24 Hours

Scroll right to see more
 ConditionsComfort  
Time TempWeatherWind HumidityBarometerVisibility
5:55 am
Sun, Feb 28
64 °FOvercast.16 mph88%30.00 "Hg10 mi
5:35 am64 °FOvercast.14 mph88%30.01 "Hg10 mi
5:15 am66 °FOvercast.16 mph83%30.02 "Hg10 mi
4:55 am66 °FOvercast.17 mph83%30.01 "Hg10 mi
4:35 am66 °FOvercast.20 mph83%30.01 "Hg10 mi
3:55 am66 °FOvercast.18 mph88%30.01 "Hg10 mi
3:35 am66 °FOvercast.13 mph88%30.00 "Hg10 mi
3:15 am66 °FOvercast.17 mph88%30.00 "Hg10 mi
2:55 am66 °FMostly cloudy.16 mph88%30.01 "Hg10 mi
2:35 am66 °FMostly cloudy.13 mph88%30.02 "Hg10 mi
2:15 am66 °FMostly cloudy.14 mph88%30.03 "Hg10 mi
1:35 am66 °FMostly cloudy.16 mph83%30.03 "Hg10 mi
1:15 am66 °FMostly cloudy.15 mph83%30.03 "Hg10 mi
12:35 am64 °FOvercast.13 mph88%30.04 "Hg10 mi
12:15 am64 °FPassing clouds.10 mph88%30.03 "Hg10 mi
11:55 pm
Sat, Feb 27
64 °FPassing clouds.10 mph88%30.03 "Hg10 mi
11:35 pm64 °FClear.12 mph88%30.02 "Hg10 mi
10:55 pm64 °FClear.8 mph88%30.04 "Hg10 mi
10:15 pm64 °FClear.9 mph88%30.06 "Hg10 mi
9:55 pm63 °FClear.8 mph94%30.06 "Hg10 mi
9:35 pm63 °FPassing clouds.7 mph94%30.06 "Hg10 mi
9:15 pm64 °FClear.10 mph88%30.07 "Hg10 mi
8:55 pm64 °FPassing clouds.8 mph94%30.06 "Hg10 mi
8:35 pm64 °FPassing clouds.8 mph94%30.05 "Hg10 mi
8:15 pm64 °FPartly cloudy.7 mph94%30.06 "Hg10 mi
7:55 pm64 °FMostly cloudy.8 mph94%30.06 "Hg10 mi
7:35 pm64 °FMostly cloudy.9 mph94%30.05 "Hg9 mi
7:15 pm63 °FPartly cloudy.6 mph100%30.07 "Hg9 mi
6:55 pm63 °FFog.7 mph94%30.07 "Hg4 mi
6:15 pm63 °FMostly cloudy.5 mph94%30.06 "Hg10 mi
5:55 pm63 °FMostly cloudy.No wind94%30.06 "Hg10 mi
5:35 pm63 °FMore clouds than sun.3 mph94%30.06 "Hg10 mi
5:15 pm63 °FPartly sunny.No wind94%30.05 "Hg10 mi
4:55 pm63 °FPartly sunny.No wind94%30.05 "Hg10 mi
4:35 pm64 °FPartly sunny.No wind88%30.06 "Hg10 mi
4:15 pm64 °FScattered clouds.3 mph88%30.06 "Hg10 mi
3:55 pm64 °FPartly sunny.6 mph88%30.07 "Hg10 mi
3:35 pm64 °FPassing clouds.No wind88%30.07 "Hg10 mi
3:15 pm64 °FPassing clouds.3 mph88%30.07 "Hg10 mi
2:55 pm64 °FPassing clouds.3 mph88%30.07 "Hg10 mi
2:35 pm64 °FScattered clouds.No wind88%30.07 "Hg10 mi
2:15 pm64 °FScattered clouds.3 mph83%30.07 "Hg10 mi
1:35 pm63 °FPartly sunny.No wind88%30.07 "Hg10 mi
1:15 pm61 °FPartly sunny.3 mph94%30.07 "Hg10 mi
12:55 pm61 °FOvercast.No wind94%30.08 "Hg10 mi
12:35 pm61 °FOvercast.3 mph94%30.09 "Hg10 mi
12:15 pm61 °FOvercast.No wind94%30.09 "Hg9 mi
11:55 am61 °FPartly sunny.No wind88%30.10 "Hg9 mi
11:35 am61 °FOvercast.3 mph88%30.11 "Hg10 mi
11:15 am61 °FFog.5 mph94%30.12 "Hg5 mi
10:55 am61 °FOvercast.6 mph88%30.11 "Hg10 mi
10:35 am61 °FOvercast.No wind88%30.11 "Hg10 mi
10:15 am61 °FOvercast.No wind88%30.10 "Hg10 mi
9:55 am61 °FBroken clouds.No wind88%30.10 "Hg10 mi
9:35 am61 °FPartly sunny.No wind88%30.10 "Hg10 mi
9:15 am61 °FOvercast.No wind88%30.10 "Hg10 mi
8:55 am61 °FMostly cloudy.No wind88%30.09 "Hg10 mi
8:35 am61 °FMostly cloudy.No wind88%30.09 "Hg10 mi
8:15 am59 °FCloudy.3 mph94%30.09 "Hg10 mi
7:55 am59 °FCloudy.No wind100%30.09 "Hg10 mi
7:35 am59 °FPartly sunny.No wind100%30.07 "Hg10 mi
7:15 am59 °FMostly cloudy.3 mph100%30.06 "Hg10 mi
Weather by CustomWeather, © 2021

See weather overview